createdAt,value
2023-06-05T14:51:47.936Z,34.29
2023-06-05T14:54:15.442Z,34.24
2023-06-05T14:56:43.657Z,34.24
2023-06-05T14:59:18.994Z,34.24
2023-06-05T15:01:53.934Z,34.17
2023-06-05T15:04:21.543Z,34.14
2023-06-05T15:06:52.651Z,34.07
2023-06-05T15:09:21.191Z,34.01
2023-06-05T15:19:27.899Z,33.84
2023-06-05T15:21:56.916Z,33.75
2023-06-05T15:24:24.341Z,33.76
2023-06-05T15:26:51.937Z,33.77
2023-06-05T15:29:19.280Z,33.75
2023-06-05T15:39:23.941Z,33.48
2023-06-05T15:49:27.804Z,33.10
2023-06-05T15:51:55.146Z,33.04
2023-06-05T15:54:45.688Z,32.93
2023-06-05T15:57:11.320Z,32.76
2023-06-05T15:59:38.673Z,32.54
2023-06-05T16:02:06.424Z,32.37
2023-06-05T16:04:35.202Z,32.28
2023-06-05T16:07:02.582Z,32.13
2023-06-05T16:09:29.918Z,31.94
2023-06-05T16:11:57.507Z,31.80
2023-06-05T16:14:26.425Z,31.60
2023-06-05T16:16:54.005Z,31.44
2023-06-05T16:19:21.633Z,31.36
2023-06-05T16:21:48.964Z,31.26
2023-06-05T16:24:16.400Z,31.12
2023-06-05T16:26:43.785Z,30.95
2023-06-05T16:29:11.410Z,30.83
2023-06-05T16:31:39.109Z,30.66
2023-06-05T16:34:12.534Z,30.47
2023-06-05T16:36:40.129Z,30.31
2023-06-05T16:39:16.759Z,30.13
2023-06-05T16:41:47.219Z,29.97
2023-06-05T16:44:14.880Z,29.79
2023-06-05T16:46:43.819Z,29.61
2023-06-05T16:49:12.039Z,29.47
2023-06-05T16:51:39.790Z,29.37
2023-06-05T16:54:07.780Z,29.21
2023-06-05T16:56:35.435Z,29.04
2023-06-05T16:59:10.892Z,28.89
2023-06-05T17:01:38.599Z,28.74
2023-06-05T17:04:06.304Z,28.59
2023-06-05T17:06:34.332Z,28.47
2023-06-05T17:09:02.294Z,28.33
2023-06-05T17:11:30.666Z,28.09
2023-06-05T17:13:58.807Z,27.78
2023-06-05T17:16:26.259Z,27.47
2023-06-05T17:18:53.634Z,27.15
2023-06-05T17:21:23.476Z,26.88
2023-06-05T17:23:52.380Z,26.64
2023-06-05T17:26:20.536Z,26.41
2023-06-05T17:28:47.837Z,26.16
2023-06-05T17:31:15.245Z,25.91
2023-06-05T17:33:43.188Z,25.63
2023-06-05T17:36:10.590Z,25.38
2023-06-05T17:38:37.969Z,25.16
2023-06-05T17:41:05.324Z,24.91
2023-06-05T17:43:32.811Z,24.67
2023-06-05T17:46:00.220Z,24.44
2023-06-05T17:48:27.810Z,24.18
2023-06-05T17:50:55.411Z,23.93
2023-06-05T17:53:24.768Z,23.66
2023-06-05T17:55:52.356Z,23.42
2023-06-05T17:58:19.780Z,23.21
2023-06-05T18:00:47.331Z,23.03
2023-06-05T18:03:14.817Z,22.90
2023-06-05T18:05:42.228Z,22.77
2023-06-05T18:08:13.355Z,22.67
2023-06-05T18:10:43.606Z,22.58
2023-06-05T18:13:11.164Z,22.51
2023-06-05T18:15:39.346Z,22.42
2023-06-05T18:18:08.422Z,22.30
2023-06-05T18:20:35.769Z,22.19
2023-06-05T18:23:03.275Z,22.07
2023-06-05T18:25:30.623Z,21.97
2023-06-05T18:27:59.286Z,21.88
2023-06-05T18:30:26.628Z,21.75
2023-06-05T18:32:54.127Z,21.64
2023-06-05T18:35:21.698Z,21.52
2023-06-05T18:37:49.771Z,21.38
2023-06-05T18:40:17.356Z,21.25
2023-06-05T18:42:44.734Z,21.11
2023-06-05T18:45:12.405Z,20.96
2023-06-05T18:47:39.927Z,20.83
2023-06-05T18:50:07.558Z,20.69
2023-06-05T18:52:35.009Z,20.58
2023-06-05T18:55:03.535Z,20.51
2023-06-05T18:57:31.045Z,20.42
2023-06-05T18:59:58.669Z,20.31
2023-06-05T19:02:26.148Z,20.18
2023-06-05T19:04:53.544Z,20.05
2023-06-05T19:07:21.199Z,19.94
2023-06-05T19:09:48.629Z,19.84
2023-06-05T19:12:16.011Z,19.76
2023-06-05T19:14:43.375Z,19.69
2023-06-05T19:17:10.817Z,19.64
2023-06-05T19:19:38.290Z,19.60
2023-06-05T19:22:05.866Z,19.56
2023-06-05T19:24:33.209Z,19.52
2023-06-05T19:27:00.948Z,19.47
2023-06-05T19:29:28.337Z,19.41
2023-06-05T19:31:55.823Z,19.36
2023-06-05T19:34:23.331Z,19.31
2023-06-05T19:36:50.777Z,19.22
2023-06-05T19:39:20.378Z,19.13
2023-06-05T19:41:52.320Z,19.07
2023-06-05T19:44:19.800Z,19.01
2023-06-05T19:46:47.214Z,18.98
2023-06-05T19:49:15.321Z,18.91
2023-06-05T19:51:45.678Z,18.79
2023-06-05T19:54:13.018Z,18.69
2023-06-05T19:56:41.606Z,18.59
2023-06-05T19:59:08.940Z,18.46
2023-06-05T20:01:39.614Z,18.33
2023-06-05T20:04:07.412Z,18.29
2023-06-05T20:06:34.912Z,18.25
2023-06-05T20:09:02.534Z,18.24
2023-06-05T20:11:29.943Z,18.27
2023-06-05T20:13:57.351Z,18.27
2023-06-05T20:16:24.742Z,18.25
2023-06-05T20:18:53.325Z,18.22
2023-06-05T20:21:20.734Z,18.18
2023-06-05T20:23:51.691Z,18.11
2023-06-05T20:26:21.586Z,18.06
2023-06-05T20:28:48.972Z,18.02
2023-06-05T20:31:16.506Z,18.00
2023-06-05T20:33:43.885Z,18.01
2023-06-05T20:36:11.435Z,18.02
2023-06-05T20:38:39.390Z,18.01
2023-06-05T20:41:09.419Z,17.98
2023-06-05T20:43:42.833Z,17.95
2023-06-05T20:46:11.320Z,17.92
2023-06-05T20:48:38.917Z,17.88
2023-06-05T20:51:10.945Z,17.81
2023-06-05T20:53:38.625Z,17.74
2023-06-05T20:56:06.257Z,17.70
2023-06-05T20:58:33.667Z,17.67
2023-06-05T21:01:01.145Z,17.64
2023-06-05T21:03:28.671Z,17.61
2023-06-05T21:05:56.245Z,17.58
2023-06-05T21:08:23.728Z,17.54
2023-06-05T21:10:51.185Z,17.50
2023-06-05T21:13:18.632Z,17.44
2023-06-05T21:15:46.321Z,17.38
2023-06-05T21:18:14.058Z,17.34
2023-06-05T21:20:41.541Z,17.30
2023-06-05T21:23:09.610Z,17.25
2023-06-05T21:25:37.055Z,17.19
2023-06-05T21:28:04.555Z,17.15
2023-06-05T21:30:31.967Z,17.15
2023-06-05T21:32:59.587Z,17.12
2023-06-05T21:35:28.307Z,17.06
2023-06-05T21:37:55.994Z,17.03
2023-06-05T21:40:23.621Z,17.01
2023-06-05T21:42:51.220Z,17.00
2023-06-05T21:45:18.733Z,16.97
2023-06-05T21:47:46.264Z,16.92
2023-06-05T21:50:14.425Z,16.87
2023-06-05T21:52:41.888Z,16.83
2023-06-05T21:55:09.734Z,16.80
2023-06-05T21:57:37.370Z,16.75
2023-06-05T22:00:07.983Z,16.72
2023-06-05T22:02:39.972Z,16.68
2023-06-05T22:05:07.891Z,16.65
2023-06-05T22:07:38.112Z,16.64
2023-06-05T22:10:06.655Z,16.60
2023-06-05T22:12:36.913Z,16.59
2023-06-05T22:15:05.193Z,16.57
2023-06-05T22:17:33.175Z,16.55
2023-06-05T22:20:07.463Z,16.53
2023-06-05T22:22:35.460Z,16.52
2023-06-05T22:25:04.133Z,16.50
2023-06-05T22:27:32.516Z,16.47
2023-06-05T22:29:59.983Z,16.45
2023-06-05T22:32:27.518Z,16.42
2023-06-05T22:34:55.134Z,16.39
2023-06-05T22:37:31.007Z,16.37
2023-06-05T22:39:58.566Z,16.36
2023-06-05T22:42:26.078Z,16.36
2023-06-05T22:44:54.603Z,16.36
2023-06-05T22:47:22.186Z,16.36
2023-06-05T22:49:54.421Z,16.32
2023-06-05T22:52:25.449Z,16.30
2023-06-05T22:54:55.580Z,16.29
2023-06-05T22:57:26.146Z,16.29
2023-06-05T22:59:58.351Z,16.29
2023-06-05T23:02:32.162Z,16.29
2023-06-05T23:05:02.209Z,16.28
2023-06-05T23:07:32.131Z,16.29
2023-06-05T23:10:03.280Z,16.29
2023-06-05T23:30:30.094Z,16.20
2023-06-05T23:33:00.258Z,16.15
2023-06-05T23:35:30.212Z,16.10
2023-06-05T23:38:01.227Z,16.07
2023-06-05T23:40:33.263Z,16.06
2023-06-05T23:43:03.215Z,16.05
2023-06-05T23:45:33.584Z,16.03
2023-06-05T23:48:04.340Z,16.02
2023-06-05T23:58:08.258Z,16.02
